sensor_id;sensor_type;location;lat;lon;timestamp;pressure;altitude;pressure_sealevel;temperature;humidity
23433;BME280;41331;45.412;10.992;2022-11-22T00:00:42;99424.53;;;8.03;100.00
23433;BME280;41331;45.412;10.992;2022-11-22T00:03:10;99425.56;;;7.98;100.00
23433;BME280;41331;45.412;10.992;2022-11-22T00:05:38;99420.91;;;7.87;100.00
23433;BME280;41331;45.412;10.992;2022-11-22T00:08:05;99415.56;;;7.78;100.00
23433;BME280;41331;45.412;10.992;2022-11-22T00:10:33;99413.19;;;7.76;100.00
23433;BME280;41331;45.412;10.992;2022-11-22T00:13:01;99401.13;;;7.86;100.00
23433;BME280;41331;45.412;10.992;2022-11-22T00:15:28;99387.94;;;7.97;100.00
23433;BME280;41331;45.412;10.992;2022-11-22T00:17:56;99389.66;;;8.01;100.00
23433;BME280;41331;45.412;10.992;2022-11-22T00:20:24;99386.06;;;8.10;100.00
23433;BME280;41331;45.412;10.992;2022-11-22T00:22:52;99365.88;;;8.19;100.00
23433;BME280;41331;45.412;10.992;2022-11-22T00:25:20;99368.84;;;8.39;100.00
23433;BME280;41331;45.412;10.992;2022-11-22T00:27:47;99363.72;;;8.25;100.00
23433;BME280;41331;45.412;10.992;2022-11-22T00:30:15;99352.31;;;8.19;100.00
23433;BME280;41331;45.412;10.992;2022-11-22T00:32:42;99345.84;;;8.12;100.00
23433;BME280;41331;45.412;10.992;2022-11-22T00:35:10;99350.38;;;8.08;100.00
23433;BME280;41331;45.412;10.992;2022-11-22T00:37:38;99340.44;;;7.99;100.00
23433;BME280;41331;45.412;10.992;2022-11-22T00:40:06;99342.81;;;8.01;100.00
23433;BME280;41331;45.412;10.992;2022-11-22T00:42:34;99327.47;;;8.05;100.00
23433;BME280;41331;45.412;10.992;2022-11-22T00:45:01;99329.69;;;8.27;100.00
23433;BME280;41331;45.412;10.992;2022-11-22T00:47:29;99314.22;;;8.28;100.00
23433;BME280;41331;45.412;10.992;2022-11-22T00:49:56;99309.84;;;8.36;100.00
23433;BME280;41331;45.412;10.992;2022-11-22T00:52:24;99290.19;;;8.51;100.00
23433;BME280;41331;45.412;10.992;2022-11-22T00:54:51;99300.13;;;8.59;100.00
23433;BME280;41331;45.412;10.992;2022-11-22T00:57:22;99285.53;;;8.51;100.00
23433;BME280;41331;45.412;10.992;2022-11-22T00:59:49;99295.56;;;8.63;100.00
23433;BME280;41331;45.412;10.992;2022-11-22T01:02:17;99284.03;;;8.66;100.00
23433;BME280;41331;45.412;10.992;2022-11-22T01:04:44;99278.19;;;8.64;100.00
23433;BME280;41331;45.412;10.992;2022-11-22T01:07:12;99268.13;;;8.65;100.00
23433;BME280;41331;45.412;10.992;2022-11-22T01:09:39;99254.41;;;8.73;100.00
23433;BME280;41331;45.412;10.992;2022-11-22T01:12:07;99245.28;;;8.66;100.00
23433;BME280;41331;45.412;10.992;2022-11-22T01:14:35;99238.81;;;8.70;100.00
23433;BME280;41331;45.412;10.992;2022-11-22T01:17:02;99238.47;;;8.72;100.00
23433;BME280;41331;45.412;10.992;2022-11-22T01:19:30;99242.09;;;8.76;100.00
23433;BME280;41331;45.412;10.992;2022-11-22T01:21:58;99247.84;;;8.74;100.00
23433;BME280;41331;45.412;10.992;2022-11-22T01:24:26;99239.56;;;8.83;100.00
23433;BME280;41331;45.412;10.992;2022-11-22T01:26:53;99236.84;;;8.83;100.00
23433;BME280;41331;45.412;10.992;2022-11-22T01:29:21;99226.88;;;8.87;100.00
23433;BME280;41331;45.412;10.992;2022-11-22T01:31:48;99220.00;;;8.90;100.00
23433;BME280;41331;45.412;10.992;2022-11-22T01:34:16;99212.75;;;8.94;100.00
23433;BME280;41331;45.412;10.992;2022-11-22T01:36:43;99205.19;;;8.87;100.00
23433;BME280;41331;45.412;10.992;2022-11-22T01:39:11;99206.81;;;9.04;100.00
23433;BME280;41331;45.412;10.992;2022-11-22T01:41:38;99185.41;;;9.02;100.00
23433;BME280;41331;45.412;10.992;2022-11-22T01:44:29;99189.28;;;9.17;100.00
23433;BME280;41331;45.412;10.992;2022-11-22T01:47:06;99173.53;;;9.07;100.00
23433;BME280;41331;45.412;10.992;2022-11-22T01:49:46;99166.44;;;9.18;100.00
23433;BME280;41331;45.412;10.992;2022-11-22T01:52:20;99162.59;;;9.19;100.00
23433;BME280;41331;45.412;10.992;2022-11-22T01:54:57;99144.56;;;9.27;100.00
23433;BME280;41331;45.412;10.992;2022-11-22T01:57:30;99143.84;;;9.30;100.00
23433;BME280;41331;45.412;10.992;2022-11-22T02:00:09;99140.38;;;9.14;100.00
23433;BME280;41331;45.412;10.992;2022-11-22T02:02:45;99122.94;;;9.15;100.00
23433;BME280;41331;45.412;10.992;2022-11-22T02:05:18;99117.41;;;9.11;100.00
23433;BME280;41331;45.412;10.992;2022-11-22T02:07:52;99102.59;;;9.08;100.00
23433;BME280;41331;45.412;10.992;2022-11-22T02:10:25;99106.56;;;9.11;100.00
23433;BME280;41331;45.412;10.992;2022-11-22T02:12:56;99091.56;;;9.01;100.00
23433;BME280;41331;45.412;10.992;2022-11-22T02:15:25;99086.06;;;8.98;100.00
23433;BME280;41331;45.412;10.992;2022-11-22T02:17:52;99072.31;;;8.91;100.00
23433;BME280;41331;45.412;10.992;2022-11-22T02:20:22;99068.19;;;8.97;100.00
23433;BME280;41331;45.412;10.992;2022-11-22T02:23:04;99054.91;;;8.92;100.00
23433;BME280;41331;45.412;10.992;2022-11-22T02:28:03;99040.25;;;9.12;100.00
23433;BME280;41331;45.412;10.992;2022-11-22T02:30:31;99028.97;;;9.10;100.00
23433;BME280;41331;45.412;10.992;2022-11-22T02:32:59;99024.97;;;9.04;100.00
23433;BME280;41331;45.412;10.992;2022-11-22T02:35:28;99016.34;;;9.18;100.00
23433;BME280;41331;45.412;10.992;2022-11-22T02:38:01;99013.81;;;9.25;100.00
23433;BME280;41331;45.412;10.992;2022-11-22T02:40:59;98999.56;;;9.12;100.00
23433;BME280;41331;45.412;10.992;2022-11-22T02:43:39;98988.59;;;9.08;100.00
23433;BME280;41331;45.412;10.992;2022-11-22T02:46:10;98981.41;;;9.16;100.00
23433;BME280;41331;45.412;10.992;2022-11-22T02:48:42;98973.91;;;9.10;100.00
23433;BME280;41331;45.412;10.992;2022-11-22T02:51:09;98972.94;;;9.37;100.00
23433;BME280;41331;45.412;10.992;2022-11-22T02:53:37;98969.81;;;9.35;100.00
23433;BME280;41331;45.412;10.992;2022-11-22T02:56:04;98963.44;;;9.27;100.00
23433;BME280;41331;45.412;10.992;2022-11-22T02:58:32;98963.16;;;9.32;100.00
23433;BME280;41331;45.412;10.992;2022-11-22T03:00:59;98943.84;;;9.18;100.00
23433;BME280;41331;45.412;10.992;2022-11-22T03:03:27;98940.34;;;9.18;100.00
23433;BME280;41331;45.412;10.992;2022-11-22T03:05:54;98933.44;;;9.20;100.00
23433;BME280;41331;45.412;10.992;2022-11-22T03:08:21;98931.09;;;9.19;100.00
23433;BME280;41331;45.412;10.992;2022-11-22T03:10:49;98921.28;;;9.33;100.00
23433;BME280;41331;45.412;10.992;2022-11-22T03:13:16;98915.06;;;9.14;100.00
23433;BME280;41331;45.412;10.992;2022-11-22T03:15:49;98911.56;;;9.32;100.00
23433;BME280;41331;45.412;10.992;2022-11-22T03:18:17;98912.78;;;9.16;100.00
23433;BME280;41331;45.412;10.992;2022-11-22T03:20:44;98902.03;;;9.03;100.00
23433;BME280;41331;45.412;10.992;2022-11-22T03:23:12;98905.03;;;8.98;100.00
23433;BME280;41331;45.412;10.992;2022-11-22T03:25:39;98889.03;;;8.93;100.00
23433;BME280;41331;45.412;10.992;2022-11-22T03:28:07;98879.78;;;8.78;100.00
23433;BME280;41331;45.412;10.992;2022-11-22T03:30:38;98878.72;;;8.83;100.00
23433;BME280;41331;45.412;10.992;2022-11-22T03:33:06;98864.66;;;8.77;100.00
23433;BME280;41331;45.412;10.992;2022-11-22T03:35:33;98848.38;;;8.77;100.00
23433;BME280;41331;45.412;10.992;2022-11-22T03:38:01;98848.97;;;8.87;100.00
23433;BME280;41331;45.412;10.992;2022-11-22T03:40:29;98842.63;;;8.98;100.00
23433;BME280;41331;45.412;10.992;2022-11-22T03:42:58;98822.56;;;8.84;100.00
23433;BME280;41331;45.412;10.992;2022-11-22T03:45:27;98832.91;;;8.97;100.00
23433;BME280;41331;45.412;10.992;2022-11-22T03:47:55;98824.06;;;9.00;100.00
23433;BME280;41331;45.412;10.992;2022-11-22T03:50:24;98814.78;;;9.21;100.00
23433;BME280;41331;45.412;10.992;2022-11-22T03:52:52;98816.53;;;9.32;100.00
23433;BME280;41331;45.412;10.992;2022-11-22T03:55:19;98815.63;;;9.25;100.00
23433;BME280;41331;45.412;10.992;2022-11-22T03:57:47;98814.38;;;9.19;100.00
23433;BME280;41331;45.412;10.992;2022-11-22T04:00:14;98809.44;;;9.24;100.00
23433;BME280;41331;45.412;10.992;2022-11-22T04:02:42;98811.69;;;9.22;100.00
23433;BME280;41331;45.412;10.992;2022-11-22T04:05:10;98801.84;;;9.14;100.00
23433;BME280;41331;45.412;10.992;2022-11-22T04:07:37;98804.06;;;9.08;100.00
23433;BME280;41331;45.412;10.992;2022-11-22T04:10:05;98801.91;;;8.98;100.00
23433;BME280;41331;45.412;10.992;2022-11-22T04:12:34;98799.16;;;8.95;100.00
23433;BME280;41331;45.412;10.992;2022-11-22T04:15:01;98806.84;;;8.93;100.00
23433;BME280;41331;45.412;10.992;2022-11-22T04:17:39;98800.34;;;8.97;100.00
23433;BME280;41331;45.412;10.992;2022-11-22T04:20:15;98787.78;;;8.89;100.00
23433;BME280;41331;45.412;10.992;2022-11-22T04:25:34;98796.06;;;8.96;100.00
23433;BME280;41331;45.412;10.992;2022-11-22T04:28:04;98799.47;;;8.93;100.00
23433;BME280;41331;45.412;10.992;2022-11-22T04:30:32;98804.06;;;8.89;100.00
23433;BME280;41331;45.412;10.992;2022-11-22T04:33:19;98795.06;;;8.85;100.00
23433;BME280;41331;45.412;10.992;2022-11-22T04:35:47;98779.94;;;8.84;100.00
23433;BME280;41331;45.412;10.992;2022-11-22T04:38:16;98788.09;;;8.84;100.00
23433;BME280;41331;45.412;10.992;2022-11-22T04:40:44;98785.91;;;8.93;100.00
23433;BME280;41331;45.412;10.992;2022-11-22T04:43:23;98782.41;;;8.93;100.00
23433;BME280;41331;45.412;10.992;2022-11-22T04:46:11;98775.72;;;8.87;100.00
23433;BME280;41331;45.412;10.992;2022-11-22T04:48:39;98781.59;;;8.89;100.00
23433;BME280;41331;45.412;10.992;2022-11-22T04:51:07;98776.44;;;8.84;100.00
23433;BME280;41331;45.412;10.992;2022-11-22T04:53:55;98775.91;;;8.78;100.00
23433;BME280;41331;45.412;10.992;2022-11-22T04:56:23;98770.94;;;8.80;100.00
23433;BME280;41331;45.412;10.992;2022-11-22T04:58:50;98764.78;;;8.83;100.00
23433;BME280;41331;45.412;10.992;2022-11-22T05:01:17;98769.63;;;8.93;100.00
23433;BME280;41331;45.412;10.992;2022-11-22T05:03:45;98770.22;;;8.83;100.00
23433;BME280;41331;45.412;10.992;2022-11-22T05:06:13;98761.28;;;8.82;100.00
23433;BME280;41331;45.412;10.992;2022-11-22T05:08:43;98763.88;;;8.95;100.00
23433;BME280;41331;45.412;10.992;2022-11-22T05:11:10;98757.47;;;8.84;100.00
23433;BME280;41331;45.412;10.992;2022-11-22T05:13:39;98762.16;;;8.87;100.00
23433;BME280;41331;45.412;10.992;2022-11-22T05:16:10;98752.16;;;8.71;100.00
23433;BME280;41331;45.412;10.992;2022-11-22T05:18:42;98757.94;;;8.89;100.00
23433;BME280;41331;45.412;10.992;2022-11-22T05:21:12;98762.50;;;8.85;100.00
23433;BME280;41331;45.412;10.992;2022-11-22T05:23:39;98751.94;;;8.99;100.00
23433;BME280;41331;45.412;10.992;2022-11-22T05:26:30;98735.50;;;8.73;100.00
23433;BME280;41331;45.412;10.992;2022-11-22T05:29:02;98741.66;;;8.70;100.00
23433;BME280;41331;45.412;10.992;2022-11-22T05:31:32;98732.19;;;8.79;100.00
23433;BME280;41331;45.412;10.992;2022-11-22T05:34:00;98728.09;;;8.70;100.00
23433;BME280;41331;45.412;10.992;2022-11-22T05:36:30;98735.22;;;8.78;100.00
23433;BME280;41331;45.412;10.992;2022-11-22T05:38:58;98722.25;;;8.68;100.00
23433;BME280;41331;45.412;10.992;2022-11-22T05:41:25;98728.91;;;8.70;100.00
23433;BME280;41331;45.412;10.992;2022-11-22T05:43:54;98723.97;;;8.76;100.00
23433;BME280;41331;45.412;10.992;2022-11-22T05:46:27;98714.69;;;8.77;100.00
23433;BME280;41331;45.412;10.992;2022-11-22T05:48:56;98712.69;;;8.74;100.00
23433;BME280;41331;45.412;10.992;2022-11-22T05:51:26;98714.97;;;8.72;100.00
23433;BME280;41331;45.412;10.992;2022-11-22T05:54:01;98721.75;;;8.81;100.00
23433;BME280;41331;45.412;10.992;2022-11-22T05:56:29;98706.75;;;8.88;100.00
23433;BME280;41331;45.412;10.992;2022-11-22T05:58:56;98702.47;;;8.87;100.00
23433;BME280;41331;45.412;10.992;2022-11-22T06:01:24;98701.47;;;8.75;100.00
23433;BME280;41331;45.412;10.992;2022-11-22T06:03:52;98696.75;;;8.72;100.00
23433;BME280;41331;45.412;10.992;2022-11-22T06:06:20;98697.69;;;8.80;100.00
23433;BME280;41331;45.412;10.992;2022-11-22T06:08:47;98700.53;;;8.87;100.00
23433;BME280;41331;45.412;10.992;2022-11-22T06:11:23;98700.69;;;8.75;100.00
23433;BME280;41331;45.412;10.992;2022-11-22T06:14:01;98707.59;;;8.72;100.00
23433;BME280;41331;45.412;10.992;2022-11-22T06:16:31;98686.06;;;8.60;100.00
23433;BME280;41331;45.412;10.992;2022-11-22T06:18:58;98682.63;;;8.63;100.00
23433;BME280;41331;45.412;10.992;2022-11-22T06:21:26;98681.84;;;8.63;100.00
23433;BME280;41331;45.412;10.992;2022-11-22T06:23:54;98690.84;;;8.67;100.00
23433;BME280;41331;45.412;10.992;2022-11-22T06:26:23;98687.06;;;8.71;100.00
23433;BME280;41331;45.412;10.992;2022-11-22T06:28:51;98696.34;;;8.70;100.00
23433;BME280;41331;45.412;10.992;2022-11-22T06:31:22;98687.28;;;8.63;100.00
23433;BME280;41331;45.412;10.992;2022-11-22T06:33:51;98693.84;;;8.62;100.00
23433;BME280;41331;45.412;10.992;2022-11-22T06:36:26;98688.88;;;8.64;100.00
23433;BME280;41331;45.412;10.992;2022-11-22T06:38:54;98680.72;;;8.64;100.00
23433;BME280;41331;45.412;10.992;2022-11-22T06:41:31;98665.25;;;8.64;100.00
23433;BME280;41331;45.412;10.992;2022-11-22T06:44:05;98661.78;;;8.67;100.00
23433;BME280;41331;45.412;10.992;2022-11-22T06:46:34;98646.66;;;8.66;100.00
23433;BME280;41331;45.412;10.992;2022-11-22T06:49:02;98650.53;;;8.65;100.00
23433;BME280;41331;45.412;10.992;2022-11-22T06:51:30;98642.38;;;8.65;100.00
23433;BME280;41331;45.412;10.992;2022-11-22T06:53:58;98640.88;;;8.68;100.00
23433;BME280;41331;45.412;10.992;2022-11-22T06:56:27;98642.50;;;8.72;100.00
23433;BME280;41331;45.412;10.992;2022-11-22T06:59:00;98636.69;;;8.70;100.00
23433;BME280;41331;45.412;10.992;2022-11-22T07:01:29;98632.88;;;8.75;100.00
23433;BME280;41331;45.412;10.992;2022-11-22T07:03:57;98634.88;;;8.78;100.00
23433;BME280;41331;45.412;10.992;2022-11-22T07:06:28;98632.75;;;8.68;100.00
23433;BME280;41331;45.412;10.992;2022-11-22T07:08:56;98617.91;;;8.62;100.00
23433;BME280;41331;45.412;10.992;2022-11-22T07:11:27;98634.97;;;8.62;100.00
23433;BME280;41331;45.412;10.992;2022-11-22T07:13:56;98628.63;;;8.54;100.00
23433;BME280;41331;45.412;10.992;2022-11-22T07:16:37;98639.81;;;8.53;100.00
23433;BME280;41331;45.412;10.992;2022-11-22T07:19:05;98636.28;;;8.49;100.00
23433;BME280;41331;45.412;10.992;2022-11-22T07:21:34;98622.19;;;8.43;100.00
23433;BME280;41331;45.412;10.992;2022-11-22T07:24:04;98631.56;;;8.46;100.00
23433;BME280;41331;45.412;10.992;2022-11-22T07:26:31;98628.72;;;8.39;100.00
23433;BME280;41331;45.412;10.992;2022-11-22T07:28:59;98612.13;;;8.24;100.00
23433;BME280;41331;45.412;10.992;2022-11-22T07:31:26;98623.28;;;8.39;100.00
23433;BME280;41331;45.412;10.992;2022-11-22T07:33:55;98609.13;;;8.29;100.00
23433;BME280;41331;45.412;10.992;2022-11-22T07:36:24;98626.88;;;8.27;100.00
23433;BME280;41331;45.412;10.992;2022-11-22T07:38:51;98620.28;;;8.24;100.00
23433;BME280;41331;45.412;10.992;2022-11-22T07:41:19;98636.16;;;8.26;100.00
23433;BME280;41331;45.412;10.992;2022-11-22T07:43:49;98627.13;;;8.18;100.00
23433;BME280;41331;45.412;10.992;2022-11-22T07:46:21;98628.44;;;8.28;100.00
23433;BME280;41331;45.412;10.992;2022-11-22T07:48:49;98630.94;;;8.17;100.00
23433;BME280;41331;45.412;10.992;2022-11-22T07:51:17;98629.97;;;8.25;100.00
23433;BME280;41331;45.412;10.992;2022-11-22T07:53:44;98628.31;;;8.21;100.00
23433;BME280;41331;45.412;10.992;2022-11-22T07:56:12;98624.13;;;8.23;100.00
23433;BME280;41331;45.412;10.992;2022-11-22T07:58:40;98623.59;;;8.18;100.00
23433;BME280;41331;45.412;10.992;2022-11-22T08:01:12;98624.75;;;8.17;100.00
23433;BME280;41331;45.412;10.992;2022-11-22T08:03:40;98607.06;;;8.23;100.00
23433;BME280;41331;45.412;10.992;2022-11-22T08:06:09;98612.91;;;8.25;100.00
23433;BME280;41331;45.412;10.992;2022-11-22T08:08:38;98604.88;;;8.28;100.00
23433;BME280;41331;45.412;10.992;2022-11-22T08:11:05;98588.53;;;8.25;100.00
23433;BME280;41331;45.412;10.992;2022-11-22T08:13:33;98590.94;;;8.30;100.00
23433;BME280;41331;45.412;10.992;2022-11-22T08:16:04;98595.38;;;8.38;100.00
23433;BME280;41331;45.412;10.992;2022-11-22T08:18:34;98571.69;;;8.35;100.00
23433;BME280;41331;45.412;10.992;2022-11-22T08:21:10;98581.28;;;8.48;100.00
23433;BME280;41331;45.412;10.992;2022-11-22T08:23:40;98574.31;;;8.51;100.00
23433;BME280;41331;45.412;10.992;2022-11-22T08:26:09;98581.94;;;8.65;100.00
23433;BME280;41331;45.412;10.992;2022-11-22T08:28:39;98577.06;;;8.74;100.00
23433;BME280;41331;45.412;10.992;2022-11-22T08:31:12;98575.63;;;8.80;100.00
23433;BME280;41331;45.412;10.992;2022-11-22T08:33:40;98583.84;;;8.84;100.00
23433;BME280;41331;45.412;10.992;2022-11-22T08:36:08;98569.47;;;8.83;100.00
23433;BME280;41331;45.412;10.992;2022-11-22T08:38:36;98567.84;;;8.78;100.00
23433;BME280;41331;45.412;10.992;2022-11-22T08:41:05;98559.22;;;8.73;100.00
23433;BME280;41331;45.412;10.992;2022-11-22T08:43:32;98560.50;;;8.79;100.00
23433;BME280;41331;45.412;10.992;2022-11-22T08:46:00;98544.16;;;8.75;100.00
23433;BME280;41331;45.412;10.992;2022-11-22T08:48:30;98545.84;;;8.84;100.00
23433;BME280;41331;45.412;10.992;2022-11-22T08:51:00;98537.94;;;8.98;100.00
23433;BME280;41331;45.412;10.992;2022-11-22T08:53:27;98528.16;;;8.93;100.00
23433;BME280;41331;45.412;10.992;2022-11-22T08:55:58;98522.31;;;8.91;100.00
23433;BME280;41331;45.412;10.992;2022-11-22T08:58:33;98528.06;;;8.86;100.00
23433;BME280;41331;45.412;10.992;2022-11-22T09:01:11;98514.09;;;8.84;100.00
23433;BME280;41331;45.412;10.992;2022-11-22T09:03:40;98511.41;;;8.88;100.00
23433;BME280;41331;45.412;10.992;2022-11-22T09:06:10;98511.78;;;8.86;100.00
23433;BME280;41331;45.412;10.992;2022-11-22T09:09:01;98506.72;;;8.85;100.00
23433;BME280;41331;45.412;10.992;2022-11-22T09:11:49;98496.34;;;8.90;100.00
23433;BME280;41331;45.412;10.992;2022-11-22T09:14:16;98494.50;;;8.98;100.00
23433;BME280;41331;45.412;10.992;2022-11-22T09:16:44;98483.19;;;8.92;100.00
23433;BME280;41331;45.412;10.992;2022-11-22T09:19:11;98475.19;;;8.99;100.00
23433;BME280;41331;45.412;10.992;2022-11-22T09:21:39;98473.25;;;9.00;100.00
23433;BME280;41331;45.412;10.992;2022-11-22T09:24:06;98452.63;;;8.95;100.00
23433;BME280;41331;45.412;10.992;2022-11-22T09:26:34;98459.69;;;9.00;100.00
23433;BME280;41331;45.412;10.992;2022-11-22T09:29:01;98449.91;;;8.95;100.00
23433;BME280;41331;45.412;10.992;2022-11-22T09:31:30;98446.78;;;8.93;100.00
23433;BME280;41331;45.412;10.992;2022-11-22T09:34:03;98434.00;;;8.94;100.00
23433;BME280;41331;45.412;10.992;2022-11-22T09:36:30;98444.31;;;9.11;100.00
23433;BME280;41331;45.412;10.992;2022-11-22T09:38:57;98436.41;;;8.99;100.00
23433;BME280;41331;45.412;10.992;2022-11-22T09:47:56;98439.72;;;9.15;100.00
23433;BME280;41331;45.412;10.992;2022-11-22T09:55:59;98448.06;;;9.03;100.00
23433;BME280;41331;45.412;10.992;2022-11-22T09:58:41;98443.34;;;8.96;100.00
23433;BME280;41331;45.412;10.992;2022-11-22T10:01:21;98449.59;;;9.00;100.00
23433;BME280;41331;45.412;10.992;2022-11-22T10:06:36;98436.34;;;8.95;100.00
23433;BME280;41331;45.412;10.992;2022-11-22T10:12:00;98420.16;;;9.02;100.00
23433;BME280;41331;45.412;10.992;2022-11-22T10:17:22;98418.91;;;8.96;100.00
23433;BME280;41331;45.412;10.992;2022-11-22T10:20:11;98409.94;;;8.92;100.00
23433;BME280;41331;45.412;10.992;2022-11-22T10:22:40;98404.75;;;8.80;100.00
23433;BME280;41331;45.412;10.992;2022-11-22T10:25:18;98404.00;;;8.83;100.00
23433;BME280;41331;45.412;10.992;2022-11-22T10:28:00;98405.22;;;8.86;100.00
23433;BME280;41331;45.412;10.992;2022-11-22T10:30:37;98414.34;;;9.00;100.00
23433;BME280;41331;45.412;10.992;2022-11-22T10:33:45;98419.22;;;8.91;100.00
23433;BME280;41331;45.412;10.992;2022-11-22T10:36:27;98430.00;;;8.84;100.00
23433;BME280;41331;45.412;10.992;2022-11-22T10:39:26;98410.00;;;8.96;100.00
23433;BME280;41331;45.412;10.992;2022-11-22T10:48:00;98389.44;;;8.95;100.00
23433;BME280;41331;45.412;10.992;2022-11-22T11:03:58;98368.38;;;8.85;100.00
23433;BME280;41331;45.412;10.992;2022-11-22T11:06:30;98355.69;;;8.92;100.00
23433;BME280;41331;45.412;10.992;2022-11-22T11:12:19;98356.53;;;8.96;100.00
23433;BME280;41331;45.412;10.992;2022-11-22T11:14:52;98337.84;;;8.91;100.00
23433;BME280;41331;45.412;10.992;2022-11-22T11:17:31;98347.91;;;8.91;100.00
23433;BME280;41331;45.412;10.992;2022-11-22T11:20:12;98342.03;;;8.85;100.00
23433;BME280;41331;45.412;10.992;2022-11-22T11:22:46;98344.28;;;8.79;100.00
23433;BME280;41331;45.412;10.992;2022-11-22T11:25:41;98346.47;;;8.70;100.00
23433;BME280;41331;45.412;10.992;2022-11-22T11:28:17;98361.69;;;8.78;100.00
23433;BME280;41331;45.412;10.992;2022-11-22T11:31:09;98346.88;;;8.72;100.00
23433;BME280;41331;45.412;10.992;2022-11-22T11:33:40;98344.53;;;8.71;100.00
23433;BME280;41331;45.412;10.992;2022-11-22T11:41:43;98347.22;;;8.41;100.00
23433;BME280;41331;45.412;10.992;2022-11-22T11:46:52;98370.09;;;8.43;100.00
23433;BME280;41331;45.412;10.992;2022-11-22T11:49:25;98371.75;;;8.51;100.00
23433;BME280;41331;45.412;10.992;2022-11-22T11:52:03;98387.00;;;8.60;100.00
23433;BME280;41331;45.412;10.992;2022-11-22T11:57:10;98382.25;;;8.53;100.00
23433;BME280;41331;45.412;10.992;2022-11-22T12:02:21;98381.22;;;8.61;100.00
23433;BME280;41331;45.412;10.992;2022-11-22T12:04:58;98400.72;;;8.44;100.00
23433;BME280;41331;45.412;10.992;2022-11-22T12:07:39;98402.53;;;8.63;100.00
23433;BME280;41331;45.412;10.992;2022-11-22T12:10:30;98405.09;;;8.52;100.00
23433;BME280;41331;45.412;10.992;2022-11-22T12:26:47;98453.19;;;8.36;100.00
23433;BME280;41331;45.412;10.992;2022-11-22T12:29:15;98462.31;;;8.24;100.00
23433;BME280;41331;45.412;10.992;2022-11-22T12:31:56;98462.34;;;8.27;100.00
23433;BME280;41331;45.412;10.992;2022-11-22T12:34:28;98457.50;;;8.37;100.00
23433;BME280;41331;45.412;10.992;2022-11-22T12:37:09;98465.25;;;8.38;100.00
23433;BME280;41331;45.412;10.992;2022-11-22T12:39:40;98460.69;;;8.42;100.00
23433;BME280;41331;45.412;10.992;2022-11-22T12:42:21;98451.78;;;8.42;100.00
23433;BME280;41331;45.412;10.992;2022-11-22T12:44:54;98464.13;;;8.39;100.00
23433;BME280;41331;45.412;10.992;2022-11-22T12:47:28;98473.41;;;8.38;100.00
23433;BME280;41331;45.412;10.992;2022-11-22T12:50:02;98478.03;;;8.38;100.00
23433;BME280;41331;45.412;10.992;2022-11-22T12:55:20;98483.94;;;8.43;100.00
23433;BME280;41331;45.412;10.992;2022-11-22T13:10:48;98507.34;;;8.32;100.00
23433;BME280;41331;45.412;10.992;2022-11-22T13:13:31;98507.34;;;8.32;100.00
23433;BME280;41331;45.412;10.992;2022-11-22T13:16:02;98489.81;;;8.26;100.00
23433;BME280;41331;45.412;10.992;2022-11-22T13:18:36;98503.38;;;8.26;100.00
23433;BME280;41331;45.412;10.992;2022-11-22T13:21:18;98509.28;;;8.31;100.00
23433;BME280;41331;45.412;10.992;2022-11-22T13:23:59;98499.56;;;8.30;100.00
23433;BME280;41331;45.412;10.992;2022-11-22T13:26:40;98495.88;;;8.39;100.00
23433;BME280;41331;45.412;10.992;2022-11-22T13:29:20;98501.81;;;8.25;100.00
23433;BME280;41331;45.412;10.992;2022-11-22T13:34:27;98501.59;;;8.56;100.00
23433;BME280;41331;45.412;10.992;2022-11-22T13:37:04;98510.63;;;8.41;100.00
23433;BME280;41331;45.412;10.992;2022-11-22T13:39:42;98511.78;;;8.21;100.00
23433;BME280;41331;45.412;10.992;2022-11-22T13:42:16;98514.09;;;8.19;100.00
23433;BME280;41331;45.412;10.992;2022-11-22T13:45:06;98517.91;;;8.18;100.00
23433;BME280;41331;45.412;10.992;2022-11-22T13:47:41;98516.28;;;8.13;100.00
23433;BME280;41331;45.412;10.992;2022-11-22T13:53:25;98507.03;;;8.14;100.00
23433;BME280;41331;45.412;10.992;2022-11-22T13:55:55;98507.81;;;8.15;100.00
23433;BME280;41331;45.412;10.992;2022-11-22T14:00:54;98505.03;;;8.11;100.00
23433;BME280;41331;45.412;10.992;2022-11-22T14:06:13;98504.06;;;8.23;100.00
23433;BME280;41331;45.412;10.992;2022-11-22T14:08:41;98484.56;;;8.14;100.00
23433;BME280;41331;45.412;10.992;2022-11-22T14:16:35;98493.03;;;8.12;100.00
23433;BME280;41331;45.412;10.992;2022-11-22T14:22:08;98479.00;;;8.07;100.00
23433;BME280;41331;45.412;10.992;2022-11-22T14:27:50;98506.66;;;8.16;100.00
23433;BME280;41331;45.412;10.992;2022-11-22T14:30:58;98497.38;;;8.17;100.00
23433;BME280;41331;45.412;10.992;2022-11-22T14:33:27;98495.16;;;8.22;100.00
23433;BME280;41331;45.412;10.992;2022-11-22T14:38:43;98495.78;;;8.35;100.00
23433;BME280;41331;45.412;10.992;2022-11-22T14:44:08;98501.66;;;8.18;100.00
23433;BME280;41331;45.412;10.992;2022-11-22T14:49:37;98496.94;;;8.34;100.00
23433;BME280;41331;45.412;10.992;2022-11-22T14:52:20;98504.69;;;8.36;100.00
23433;BME280;41331;45.412;10.992;2022-11-22T14:54:52;98488.66;;;8.27;100.00
23433;BME280;41331;45.412;10.992;2022-11-22T14:57:24;98487.50;;;8.47;100.00
23433;BME280;41331;45.412;10.992;2022-11-22T15:05:18;98497.44;;;8.40;100.00
23433;BME280;41331;45.412;10.992;2022-11-22T15:11:42;98507.16;;;8.41;100.00
23433;BME280;41331;45.412;10.992;2022-11-22T15:17:11;98503.53;;;8.56;100.00
23433;BME280;41331;45.412;10.992;2022-11-22T15:20:00;98513.59;;;8.55;100.00
23433;BME280;41331;45.412;10.992;2022-11-22T15:22:50;98505.41;;;8.52;100.00
23433;BME280;41331;45.412;10.992;2022-11-22T15:25:37;98513.75;;;8.43;100.00
23433;BME280;41331;45.412;10.992;2022-11-22T15:28:25;98507.81;;;8.57;100.00